Time;durP1;ratioP1;P1;durP2;ratioP2;P2;SDS_P1;SDS_P2;PMS_P1;PMS_P2;Temp;Humidity;BMP_temperature;BMP_pressure;BME280_temperature;BME280_humidity;BME280_pressure;Samples;Min_cycle;Max_cycle;Signal;HPM_P1;HPM_P2
2022/08/04 00:00:20;;;;;;;3.88;1.50;;;23.80;81.00;;;;;;5048822;28;20029;-63
2022/08/04 00:02:54;;;;;;;2.00;1.20;;;23.80;81.40;;;;;;5050948;28;20043;-63
2022/08/04 00:05:46;;;;;;;2.15;1.25;;;23.70;81.40;;;;;;5045379;28;20026;-63
2022/08/04 00:08:24;;;;;;;2.15;1.20;;;23.70;81.50;;;;;;5047922;28;20068;-63
2022/08/04 00:10:53;;;;;;;3.03;1.48;;;23.60;81.90;;;;;;5050063;28;20017;-63
2022/08/04 00:13:24;;;;;;;4.15;1.25;;;23.60;82.20;;;;;;5047813;28;20347;-63
2022/08/04 00:16:03;;;;;;;2.97;1.40;;;23.50;82.40;;;;;;5046226;28;20048;-63
2022/08/04 00:18:33;;;;;;;4.28;1.67;;;23.50;83.20;;;;;;5048139;28;20104;-63
2022/08/04 00:21:04;;;;;;;1.90;0.95;;;23.50;82.40;;;;;;5048959;28;20029;-63
2022/08/04 00:23:34;;;;;;;3.30;1.23;;;23.50;82.40;;;;;;5048050;28;20027;-63
2022/08/04 00:26:00;;;;;;;2.25;1.00;;;23.50;82.30;;;;;;5048855;28;20509;-62
2022/08/04 00:28:30;;;;;;;1.95;0.90;;;23.60;82.00;;;;;;5048177;28;20539;-63
2022/08/04 00:30:56;;;;;;;2.83;0.90;;;23.60;81.60;;;;;;5050475;28;20017;-63
2022/08/04 00:33:21;;;;;;;3.17;1.50;;;23.70;81.30;;;;;;5047558;28;20071;-63
2022/08/04 00:35:48;;;;;;;1.70;0.77;;;23.70;80.90;;;;;;5048755;28;20140;-63
2022/08/04 00:38:16;;;;;;;3.20;0.90;;;23.70;80.60;;;;;;5047803;28;20075;-63
2022/08/04 00:41:21;;;;;;;2.00;1.10;;;23.70;80.50;;;;;;5049329;28;20659;-63
2022/08/04 00:44:26;;;;;;;1.85;0.90;;;23.70;80.40;;;;;;5049759;28;20029;-63
2022/08/04 00:47:15;;;;;;;2.90;1.30;;;23.70;80.50;;;;;;5047874;28;20028;-63
2022/08/04 00:49:51;;;;;;;;;;;23.60;81.00;;;;;;5050175;28;20017;-63
2022/08/04 00:52:32;;;;;;;2.88;1.20;;;23.40;81.30;;;;;;5048680;28;19913;-63
2022/08/04 00:55:03;;;;;;;3.83;1.38;;;23.40;81.60;;;;;;5047886;28;20400;-63
2022/08/04 00:57:52;;;;;;;4.13;1.40;;;23.40;81.60;;;;;;5046238;28;20049;-63
2022/08/04 01:00:19;;;;;;;2.13;1.13;;;23.40;81.40;;;;;;5048874;28;20013;-65
2022/08/04 01:02:47;;;;;;;3.05;1.60;;;23.40;81.90;;;;;;5054510;28;20033;-63
2022/08/04 01:05:37;;;;;;;4.95;1.98;;;23.40;82.30;;;;;;5054255;28;20028;-62
2022/08/04 01:08:15;;;;;;;4.35;1.75;;;23.30;82.70;;;;;;5051862;28;20052;-63
2022/08/04 01:11:04;;;;;;;4.38;2.22;;;23.30;83.30;;;;;;5051736;28;20385;-63
2022/08/04 01:13:51;;;;;;;2.63;1.98;;;23.30;83.10;;;;;;5052522;28;20052;-63
2022/08/04 01:16:21;;;;;;;2.92;1.70;;;23.30;83.40;;;;;;5053086;28;20033;-63
2022/08/04 01:18:52;;;;;;;4.45;1.67;;;23.20;83.40;;;;;;5053919;28;20033;-63
2022/08/04 01:21:29;;;;;;;3.75;1.80;;;23.20;83.40;;;;;;5051485;28;20032;-62
2022/08/04 01:24:36;;;;;;;5.13;2.40;;;23.30;83.20;;;;;;5052875;28;20032;-63
2022/08/04 01:27:10;;;;;;;3.97;1.73;;;23.20;83.50;;;;;;5016975;28;20092;-63
2022/08/04 01:30:05;;;;;;;6.88;2.50;;;23.20;83.90;;;;;;5030594;28;20029;-63
2022/08/04 01:32:43;;;;;;;3.65;2.10;;;23.20;83.70;;;;;;5033762;28;20374;-63
2022/08/04 01:35:27;;;;;;;4.57;1.63;;;23.10;83.90;;;;;;5046091;28;20071;-63
2022/08/04 01:38:24;;;;;;;7.05;2.45;;;23.20;83.70;;;;;;5051441;28;20025;-63
2022/08/04 01:40:52;;;;;;;2.33;1.63;;;23.20;83.60;;;;;;5050811;28;20033;-63
2022/08/04 01:43:20;;;;;;;5.22;2.22;;;23.10;83.60;;;;;;5054024;28;20020;-62
2022/08/04 01:45:50;;;;;;;6.05;2.10;;;23.10;83.60;;;;;;5055311;28;20096;-63
2022/08/04 01:48:17;;;;;;;5.25;2.38;;;23.10;83.50;;;;;;5035954;28;20028;-63
2022/08/04 01:50:44;;;;;;;3.28;2.15;;;23.10;83.60;;;;;;5053614;28;20047;-62
2022/08/04 01:53:10;;;;;;;5.15;1.48;;;23.10;83.50;;;;;;5050034;28;20013;-62
2022/08/04 01:55:37;;;;;;;3.05;1.98;;;23.10;83.60;;;;;;5019752;28;20385;-63
2022/08/04 01:58:04;;;;;;;3.92;2.30;;;23.10;83.60;;;;;;5050996;28;20063;-63
2022/08/04 02:00:30;;;;;;;5.80;2.20;;;23.10;83.70;;;;;;5050730;28;20036;-63
2022/08/04 02:02:56;;;;;;;5.07;2.20;;;23.10;83.90;;;;;;5048762;28;20057;-63
2022/08/04 02:05:24;;;;;;;5.03;2.20;;;23.10;83.90;;;;;;5053353;28;20495;-62
2022/08/04 02:08:18;;;;;;;3.88;1.55;;;23.00;83.80;;;;;;5049770;28;20445;-63
2022/08/04 02:11:12;;;;;;;5.40;2.10;;;23.00;83.80;;;;;;5049181;28;20053;-63
2022/08/04 02:14:12;;;;;;;2.63;1.50;;;23.00;83.80;;;;;;5050669;28;20024;-63
2022/08/04 02:16:48;;;;;;;4.88;2.15;;;23.00;83.60;;;;;;5047518;28;20443;-63
2022/08/04 02:19:31;;;;;;;7.40;2.45;;;23.00;83.70;;;;;;5052941;28;20048;-63
2022/08/04 02:22:06;;;;;;;4.95;1.70;;;23.00;83.40;;;;;;5050406;28;20095;-63
2022/08/04 02:24:31;;;;;;;6.43;2.40;;;23.00;83.40;;;;;;5048484;28;20485;-62
2022/08/04 02:26:59;;;;;;;4.45;2.05;;;23.00;83.40;;;;;;5053117;28;20066;-63
2022/08/04 02:29:38;;;;;;;5.60;2.60;;;23.00;83.50;;;;;;5052221;28;20014;-62
2022/08/04 02:32:07;;;;;;;4.82;2.38;;;23.00;83.20;;;;;;5051541;28;20028;-62
2022/08/04 02:34:51;;;;;;;4.18;1.98;;;23.00;83.10;;;;;;5048328;28;20033;-62
2022/08/04 02:37:16;;;;;;;4.80;1.95;;;23.10;83.10;;;;;;5051561;28;20026;-62
2022/08/04 02:39:44;;;;;;;4.20;1.40;;;23.00;83.30;;;;;;5051462;28;20033;-62
2022/08/04 02:42:12;;;;;;;5.38;2.03;;;23.00;83.10;;;;;;5048387;28;20028;-62
2022/08/04 02:44:39;;;;;;;5.43;1.95;;;23.00;83.20;;;;;;5052621;28;20025;-63
2022/08/04 02:47:06;;;;;;;4.40;1.85;;;23.00;83.30;;;;;;5053700;28;20027;-63
2022/08/04 02:49:35;;;;;;;4.20;1.77;;;23.00;83.20;;;;;;5050111;28;20523;-63
2022/08/04 02:52:03;;;;;;;5.03;1.85;;;23.00;83.20;;;;;;5052840;28;20040;-62
2022/08/04 02:54:39;;;;;;;4.50;1.75;;;23.00;83.40;;;;;;5049139;28;20025;-63
2022/08/04 02:57:10;;;;;;;6.28;2.22;;;23.00;83.30;;;;;;5049816;28;20017;-62
2022/08/04 03:00:13;;;;;;;3.28;1.50;;;23.00;83.50;;;;;;5051838;28;20025;-62
2022/08/04 03:02:49;;;;;;;3.42;1.00;;;23.00;83.20;;;;;;5048504;28;20044;-62
2022/08/04 03:05:21;;;;;;;2.22;1.23;;;23.00;83.40;;;;;;5051686;28;20108;-63
2022/08/04 03:08:05;;;;;;;2.83;1.00;;;23.00;83.30;;;;;;5049359;28;20061;-62
2022/08/04 03:11:00;;;;;;;2.30;1.05;;;23.00;83.30;;;;;;5049427;28;20071;-63
2022/08/04 03:13:45;;;;;;;2.97;0.90;;;23.10;83.00;;;;;;5050200;28;20370;-62
2022/08/04 03:16:11;;;;;;;2.88;0.95;;;23.10;83.00;;;;;;5051003;28;20377;-62
2022/08/04 03:19:06;;;;;;;3.33;1.33;;;23.10;83.10;;;;;;5052229;28;20028;-62
2022/08/04 03:21:49;;;;;;;4.75;0.90;;;23.10;82.80;;;;;;5045685;28;20092;-63
2022/08/04 03:24:35;;;;;;;2.95;0.95;;;23.00;82.80;;;;;;5048913;28;20020;-63
2022/08/04 03:27:29;;;;;;;3.22;1.40;;;23.00;82.70;;;;;;5050188;28;20071;-63
2022/08/04 03:30:18;;;;;;;2.13;0.95;;;23.00;82.80;;;;;;5048126;28;20152;-63
2022/08/04 03:33:05;;;;;;;3.88;1.17;;;23.00;82.80;;;;;;5047113;28;20021;-63
2022/08/04 03:36:10;;;;;;;4.57;1.00;;;22.90;82.90;;;;;;5049080;28;20502;-62
2022/08/04 03:38:35;;;;;;;3.08;1.17;;;22.90;83.00;;;;;;5048918;28;20064;-63
2022/08/04 03:41:29;;;;;;;3.90;1.17;;;22.80;83.30;;;;;;5047849;28;20522;-63
2022/08/04 03:44:25;;;;;;;3.40;1.48;;;22.90;83.10;;;;;;5048577;28;20025;-62
2022/08/04 03:47:27;;;;;;;4.22;1.50;;;22.80;83.10;;;;;;5050605;28;20025;-63
2022/08/04 03:50:26;;;;;;;4.57;1.45;;;22.80;83.90;;;;;;5047916;28;20047;-62
2022/08/04 03:53:10;;;;;;;;;;;22.80;83.40;;;;;;5051709;28;20439;-63
2022/08/04 03:55:54;;;;;;;2.88;1.38;;;22.70;83.60;;;;;;5048506;28;20035;-62
2022/08/04 03:59:00;;;;;;;3.28;1.30;;;22.60;83.80;;;;;;5044766;28;20024;-63
2022/08/04 04:01:44;;;;;;;3.88;1.20;;;22.50;83.90;;;;;;5024841;28;20052;-62
2022/08/04 04:04:13;;;;;;;2.47;1.05;;;22.50;84.00;;;;;;5050186;28;20037;-62
2022/08/04 04:06:50;;;;;;;4.10;1.40;;;22.40;84.50;;;;;;5048176;28;20070;-63
2022/08/04 04:09:27;;;;;;;2.95;1.60;;;22.40;84.60;;;;;;5048585;28;20017;-63
2022/08/04 04:12:18;;;;;;;5.20;1.73;;;22.30;84.90;;;;;;5047057;28;20009;-62
2022/08/04 04:14:48;;;;;;;3.10;1.60;;;22.30;84.80;;;;;;5048113;28;20013;-62
2022/08/04 04:17:28;;;;;;;6.22;1.95;;;22.30;84.90;;;;;;5050704;28;20017;-62
2022/08/04 04:20:31;;;;;;;4.30;1.70;;;22.30;85.00;;;;;;5047659;28;20108;-63
2022/08/04 04:23:11;;;;;;;3.80;1.55;;;22.30;84.70;;;;;;5043854;28;20032;-62
2022/08/04 04:26:02;;;;;;;7.35;2.20;;;22.40;84.80;;;;;;5046964;28;20036;-62
2022/08/04 04:28:33;;;;;;;3.55;1.90;;;22.30;84.70;;;;;;5047065;28;20025;-62
2022/08/04 04:31:15;;;;;;;6.78;3.00;;;22.30;85.00;;;;;;5043987;28;20099;-62
2022/08/04 04:33:59;;;;;;;4.63;2.10;;;22.20;86.10;;;;;;5045327;28;20071;-62
2022/08/04 04:36:50;;;;;;;5.70;2.30;;;22.10;86.50;;;;;;5015725;28;20606;-62
2022/08/04 04:39:54;;;;;;;3.80;2.08;;;22.10;86.50;;;;;;5019625;28;20093;-62
2022/08/04 04:42:37;;;;;;;3.33;2.30;;;22.10;86.30;;;;;;5023196;28;20127;-62
2022/08/04 04:45:24;;;;;;;4.07;2.42;;;22.10;86.10;;;;;;5040394;28;20033;-62
2022/08/04 04:48:13;;;;;;;2.70;1.90;;;22.20;86.00;;;;;;5027857;28;20572;-63
2022/08/04 04:51:05;;;;;;;6.32;2.30;;;22.20;86.10;;;;;;5043659;28;20032;-62
2022/08/04 04:53:43;;;;;;;6.40;2.22;;;22.20;86.00;;;;;;5043417;28;20028;-62
2022/08/04 04:56:39;;;;;;;2.70;2.03;;;22.20;86.10;;;;;;5047664;28;20013;-62
2022/08/04 04:59:09;;;;;;;3.55;2.00;;;22.20;85.90;;;;;;5045790;28;20040;-62
2022/08/04 05:02:06;;;;;;;5.07;2.40;;;22.20;86.10;;;;;;5046159;28;20025;-63
2022/08/04 05:05:00;;;;;;;3.08;2.17;;;22.30;86.10;;;;;;5045229;28;20500;-63
2022/08/04 05:07:38;;;;;;;4.13;1.95;;;22.30;86.00;;;;;;5046010;28;20052;-62
2022/08/04 05:10:29;;;;;;;5.22;2.35;;;22.30;86.20;;;;;;5046844;28;20578;-62
2022/08/04 05:13:19;;;;;;;5.35;2.10;;;22.40;86.20;;;;;;5043944;28;20424;-62
2022/08/04 05:15:48;;;;;;;6.60;2.38;;;22.30;86.50;;;;;;5045655;28;20115;-62
2022/08/04 05:18:21;;;;;;;2.75;2.30;;;22.30;86.80;;;;;;5045608;28;20108;-62
2022/08/04 05:20:52;;;;;;;3.47;2.60;;;22.40;86.70;;;;;;5044464;28;20052;-62
2022/08/04 05:23:21;;;;;;;7.93;2.85;;;22.40;86.70;;;;;;5041353;28;20508;-62
2022/08/04 05:25:57;;;;;;;8.27;2.47;;;22.50;86.70;;;;;;5047722;28;20021;-62
2022/08/04 05:28:31;;;;;;;4.88;2.70;;;22.50;86.80;;;;;;5045138;28;20435;-62
2022/08/04 05:31:01;;;;;;;3.03;2.45;;;22.50;87.00;;;;;;5045780;28;20485;-62
2022/08/04 05:33:33;;;;;;;4.10;2.60;;;22.60;87.10;;;;;;5042640;28;20556;-63
2022/08/04 05:36:02;;;;;;;5.60;3.17;;;22.60;87.20;;;;;;5045410;28;20620;-62
2022/08/04 05:38:33;;;;;;;4.93;2.55;;;22.70;87.30;;;;;;5045219;28;20037;-62
2022/08/04 05:41:03;;;;;;;5.20;2.78;;;22.70;87.40;;;;;;5017191;28;20116;-62
2022/08/04 05:43:30;;;;;;;4.65;2.60;;;22.80;87.70;;;;;;5049663;28;20025;-62
2022/08/04 05:45:57;;;;;;;4.03;2.78;;;22.70;87.80;;;;;;5054310;28;20084;-62
2022/08/04 05:48:24;;;;;;;4.70;2.85;;;22.80;88.10;;;;;;5061447;28;20110;-63
2022/08/04 05:50:51;;;;;;;3.67;2.72;;;22.90;88.30;;;;;;5033935;28;20032;-63
2022/08/04 05:53:17;;;;;;;5.68;2.63;;;22.90;88.40;;;;;;5058452;28;20017;-62
2022/08/04 05:55:45;;;;;;;3.95;2.50;;;23.00;88.50;;;;;;5055210;28;20075;-63
2022/08/04 05:58:12;;;;;;;2.88;2.08;;;23.00;88.50;;;;;;5057942;28;20032;-62
2022/08/04 06:00:40;;;;;;;6.60;2.55;;;23.10;88.60;;;;;;5059793;28;20067;-62
2022/08/04 06:03:08;;;;;;;5.85;2.75;;;23.20;88.60;;;;;;5038070;28;20045;-62
2022/08/04 06:05:34;;;;;;;3.80;2.70;;;23.20;88.60;;;;;;5039330;28;20028;-62
2022/08/04 06:08:00;;;;;;;5.07;3.05;;;23.30;88.60;;;;;;5036422;28;20112;-62
2022/08/04 06:10:26;;;;;;;4.15;3.10;;;23.30;88.60;;;;;;5038361;28;20555;-63
2022/08/04 06:13:05;;;;;;;5.75;3.30;;;23.30;88.70;;;;;;5039803;28;20508;-63
2022/08/04 06:15:38;;;;;;;4.97;3.15;;;23.40;88.80;;;;;;5036288;28;20045;-62
2022/08/04 06:18:06;;;;;;;7.72;3.92;;;23.40;88.90;;;;;;5033421;28;20477;-62
2022/08/04 06:20:42;;;;;;;4.32;3.10;;;23.50;89.10;;;;;;5017310;28;20117;-62
2022/08/04 06:23:14;;;;;;;4.85;3.08;;;23.60;89.20;;;;;;5029270;28;20124;-62
2022/08/04 06:26:03;;;;;;;5.88;2.65;;;23.60;89.20;;;;;;5045022;28;20029;-63
2022/08/04 06:28:30;;;;;;;5.03;2.70;;;23.70;89.10;;;;;;5018284;28;20026;-62
2022/08/04 06:31:01;;;;;;;4.93;2.95;;;23.70;89.20;;;;;;5012623;28;20026;-62
2022/08/04 06:33:33;;;;;;;4.32;3.05;;;23.80;89.10;;;;;;5018537;28;20022;-63
2022/08/04 06:36:01;;;;;;;4.13;2.88;;;23.90;89.10;;;;;;5019846;28;20026;-63
2022/08/04 06:38:28;;;;;;;3.78;2.63;;;24.00;89.00;;;;;;5023334;28;20041;-62
2022/08/04 06:40:56;;;;;;;5.15;2.97;;;24.10;89.40;;;;;;5019143;28;20043;-62
2022/08/04 06:43:23;;;;;;;5.53;3.27;;;24.10;88.70;;;;;;5030209;28;20034;-62
2022/08/04 06:45:49;;;;;;;3.92;3.13;;;24.20;88.70;;;;;;5039987;28;20037;-63
2022/08/04 06:48:17;;;;;;;4.00;3.08;;;24.20;88.50;;;;;;5043346;28;20110;-63
2022/08/04 06:50:46;;;;;;;4.25;2.78;;;24.30;88.60;;;;;;5039614;28;20013;-62
2022/08/04 06:53:12;;;;;;;7.80;3.30;;;24.40;88.60;;;;;;5044939;28;20446;-63
2022/08/04 06:55:41;;;;;;;4.50;3.40;;;24.40;88.60;;;;;;5038539;28;20068;-62
2022/08/04 06:58:08;;;;;;;5.75;3.67;;;24.50;88.70;;;;;;5040564;28;20497;-62
2022/08/04 07:00:35;;;;;;;5.43;3.00;;;24.60;88.80;;;;;;5035945;28;20057;-63
2022/08/04 07:03:02;;;;;;;5.30;3.58;;;24.60;88.70;;;;;;5052201;28;20043;-63
2022/08/04 07:05:29;;;;;;;6.40;3.13;;;24.70;88.80;;;;;;5059623;28;20164;-62
2022/08/04 07:07:56;;;;;;;4.75;3.05;;;24.80;88.80;;;;;;5059582;28;20029;-63
2022/08/04 07:10:23;;;;;;;3.78;2.33;;;24.90;88.70;;;;;;5061368;28;20032;-62
2022/08/04 07:12:51;;;;;;;5.00;2.75;;;25.00;88.40;;;;;;5056971;28;20017;-62
2022/08/04 07:15:18;;;;;;;2.42;1.75;;;25.10;87.60;;;;;;5058836;28;20794;-62
2022/08/04 07:17:45;;;;;;;3.25;2.45;;;25.20;87.50;;;;;;5047098;28;20067;-62
2022/08/04 07:20:11;;;;;;;3.40;1.98;;;25.30;86.90;;;;;;5039810;28;20134;-62
2022/08/04 07:22:37;;;;;;;2.55;1.98;;;25.40;86.30;;;;;;5046557;28;20148;-63
2022/08/04 07:25:09;;;;;;;2.90;1.85;;;25.60;85.80;;;;;;5039818;28;20026;-62
2022/08/04 07:27:42;;;;;;;4.93;2.38;;;25.70;85.70;;;;;;5045509;28;20013;-63
2022/08/04 07:30:09;;;;;;;7.30;1.90;;;25.80;82.80;;;;;;5043122;28;20480;-63
2022/08/04 07:32:36;;;;;;;3.75;1.55;;;25.90;82.00;;;;;;5036015;28;20032;-62
2022/08/04 07:35:04;;;;;;;3.55;1.77;;;26.00;80.90;;;;;;5053515;28;20028;-62
2022/08/04 07:37:42;;;;;;;5.03;2.50;;;26.00;80.50;;;;;;5066326;28;20071;-62
2022/08/04 07:40:08;;;;;;;6.53;2.83;;;26.10;80.30;;;;;;5061364;28;20108;-63
2022/08/04 07:42:34;;;;;;;5.90;4.13;;;26.10;80.30;;;;;;5052745;28;20099;-62
2022/08/04 07:45:37;;;;;;;;;;;;;;;;;;;;;
2022/08/04 07:48:05;;;;;;;7.97;4.97;;;26.20;81.40;;;;;;5045337;28;20476;-62
2022/08/04 07:50:45;;;;;;;6.85;5.43;;;26.20;82.30;;;;;;5059829;28;20472;-62
2022/08/04 07:53:12;;;;;;;8.32;6.40;;;26.30;83.10;;;;;;5059435;28;20020;-63
2022/08/04 07:55:37;;;;;;;7.85;4.72;;;26.30;83.80;;;;;;5051866;28;20018;-62
2022/08/04 07:58:03;;;;;;;7.35;4.88;;;26.30;83.80;;;;;;5063445;28;20370;-62
2022/08/04 08:00:28;;;;;;;7.82;4.38;;;26.40;83.80;;;;;;5061136;28;20055;-62
2022/08/04 08:02:55;;;;;;;7.03;4.13;;;26.40;83.00;;;;;;5052954;28;20091;-62
2022/08/04 08:05:21;;;;;;;6.65;4.07;;;26.50;82.20;;;;;;5057580;28;20021;-62
2022/08/04 08:07:48;;;;;;;5.60;3.92;;;26.50;82.00;;;;;;5056710;28;20020;-63
2022/08/04 08:10:15;;;;;;;5.68;3.50;;;26.50;81.60;;;;;;5061955;28;20391;-63
2022/08/04 08:12:41;;;;;;;6.65;3.72;;;26.60;81.40;;;;;;5056633;28;20017;-63
2022/08/04 08:15:09;;;;;;;9.90;4.22;;;26.60;81.10;;;;;;5055682;28;20445;-63
2022/08/04 08:17:36;;;;;;;9.50;3.85;;;26.70;80.40;;;;;;5060257;28;20457;-63
2022/08/04 08:20:02;;;;;;;4.80;3.03;;;26.70;80.00;;;;;;5034295;28;20108;-62
2022/08/04 08:22:28;;;;;;;6.57;4.05;;;26.70;79.90;;;;;;5060763;28;20104;-62
2022/08/04 08:24:53;;;;;;;8.07;3.60;;;26.80;79.60;;;;;;5056515;28;20024;-63
2022/08/04 08:27:19;;;;;;;5.38;3.30;;;26.80;79.00;;;;;;5060969;28;20055;-63
2022/08/04 08:29:45;;;;;;;6.03;3.17;;;26.90;78.90;;;;;;5041523;28;20079;-63
2022/08/04 08:32:12;;;;;;;6.70;3.35;;;26.90;78.80;;;;;;5033999;28;20363;-63
2022/08/04 08:34:40;;;;;;;6.38;3.00;;;27.00;78.60;;;;;;5031511;28;20427;-63
2022/08/04 08:37:12;;;;;;;4.93;3.13;;;27.10;78.70;;;;;;5033208;28;20394;-63
2022/08/04 08:39:44;;;;;;;4.88;2.78;;;27.20;78.50;;;;;;5055191;28;20052;-62
2022/08/04 08:42:38;;;;;;;8.88;2.85;;;27.30;78.20;;;;;;5036856;28;20040;-63
2022/08/04 08:45:25;;;;;;;4.20;3.10;;;27.40;77.70;;;;;;5053200;28;20051;-63
2022/08/04 08:48:15;;;;;;;4.85;1.70;;;27.50;77.30;;;;;;5039298;28;20017;-63
2022/08/04 08:50:53;;;;;;;5.30;1.88;;;27.50;77.00;;;;;;5047860;28;20100;-62
2022/08/04 08:53:34;;;;;;;4.57;1.60;;;27.50;76.80;;;;;;5025126;28;20074;-63
2022/08/04 08:56:46;;;;;;;4.43;1.77;;;27.60;76.20;;;;;;5055657;28;20118;-63
2022/08/04 08:59:30;;;;;;;3.47;1.30;;;27.60;75.40;;;;;;5049764;28;20071;-63
2022/08/04 09:02:14;;;;;;;3.80;1.30;;;27.70;75.20;;;;;;5048354;28;20029;-63
2022/08/04 09:04:45;;;;;;;1.73;0.90;;;27.90;74.70;;;;;;5048247;28;20040;-63
2022/08/04 09:07:52;;;;;;;2.90;0.88;;;28.00;74.00;;;;;;5032569;28;20468;-63
2022/08/04 09:10:32;;;;;;;2.45;0.93;;;28.10;73.50;;;;;;5045956;28;20025;-63
2022/08/04 09:13:01;;;;;;;3.58;0.90;;;28.10;71.90;;;;;;5052110;28;20033;-63
2022/08/04 09:16:01;;;;;;;2.60;0.80;;;28.10;71.20;;;;;;5056777;28;20384;-63
2022/08/04 09:18:42;;;;;;;3.30;1.08;;;28.20;70.90;;;;;;5038659;28;20045;-63
2022/08/04 09:21:48;;;;;;;2.80;1.00;;;28.20;70.70;;;;;;5054301;28;20021;-63
2022/08/04 09:24:23;;;;;;;2.00;0.60;;;28.30;69.80;;;;;;4970110;28;20023;-63
2022/08/04 09:27:01;;;;;;;3.08;1.08;;;28.40;68.60;;;;;;4958214;28;20079;-63
2022/08/04 09:29:52;;;;;;;2.95;0.75;;;28.50;67.80;;;;;;4999530;28;20025;-63
2022/08/04 09:32:37;;;;;;;3.60;1.02;;;28.60;67.80;;;;;;5031366;28;20120;-63
2022/08/04 09:35:26;;;;;;;3.40;1.17;;;28.80;67.90;;;;;;5061931;28;20025;-63
2022/08/04 09:38:29;;;;;;;3.92;0.77;;;29.00;67.80;;;;;;5057331;28;20025;-63
2022/08/04 09:41:04;;;;;;;4.40;0.88;;;29.30;67.70;;;;;;5033679;28;20024;-63
2022/08/04 09:43:55;;;;;;;5.57;0.80;;;29.40;67.40;;;;;;5043834;28;20017;-63
2022/08/04 09:46:25;;;;;;;2.63;0.73;;;29.60;67.00;;;;;;5020247;28;20033;-63
2022/08/04 09:49:06;;;;;;;3.40;1.20;;;29.80;66.50;;;;;;5039562;28;20017;-63
2022/08/04 09:51:50;;;;;;;3.55;1.17;;;29.80;65.90;;;;;;5048756;28;20021;-63
2022/08/04 09:54:18;;;;;;;4.88;1.63;;;29.80;65.60;;;;;;5059965;28;20107;-63
2022/08/04 09:56:54;;;;;;;4.68;0.93;;;29.80;65.60;;;;;;5057491;28;20056;-63
2022/08/04 09:59:25;;;;;;;6.18;0.90;;;29.80;65.00;;;;;;5047235;28;20047;-63
2022/08/04 10:01:55;;;;;;;5.10;1.25;;;29.80;64.90;;;;;;5045875;28;20104;-63
2022/08/04 10:04:24;;;;;;;2.55;0.70;;;29.80;64.50;;;;;;5040738;28;20128;-63
2022/08/04 10:07:33;;;;;;;3.63;0.90;;;29.80;64.50;;;;;;5044932;28;20029;-63
2022/08/04 10:10:17;;;;;;;3.38;0.93;;;29.70;63.80;;;;;;5040555;28;20515;-63
2022/08/04 10:13:12;;;;;;;;;;;;;;;;;;;;;
2022/08/04 10:16:12;;;;;;;3.47;1.10;;;29.50;63.50;;;;;;5051537;28;20022;-63
2022/08/04 10:19:00;;;;;;;4.07;1.05;;;29.40;63.90;;;;;;5035702;28;20037;-63
2022/08/04 10:21:36;;;;;;;3.22;1.10;;;29.40;64.50;;;;;;5055457;28;20536;-63
2022/08/04 10:24:29;;;;;;;6.28;1.10;;;29.20;64.80;;;;;;5038548;28;20037;-63
2022/08/04 10:26:57;;;;;;;3.88;1.05;;;29.20;65.20;;;;;;5039095;28;20124;-63
2022/08/04 10:29:30;;;;;;;4.78;1.85;;;29.00;65.40;;;;;;5046543;28;20025;-63
2022/08/04 10:32:08;;;;;;;4.78;1.50;;;28.80;65.90;;;;;;5042409;28;20156;-63
2022/08/04 10:35:35;;;;;;;2.53;0.80;;;28.70;66.60;;;;;;5050756;28;20051;-63
2022/08/04 10:38:48;;;;;;;5.03;1.52;;;28.60;67.20;;;;;;5006772;28;20079;-63
2022/08/04 10:41:38;;;;;;;3.58;1.15;;;28.40;68.30;;;;;;5032315;28;20036;-63
2022/08/04 10:44:04;;;;;;;4.68;1.00;;;28.30;69.50;;;;;;5050374;28;20095;-63
2022/08/04 10:46:35;;;;;;;3.63;0.90;;;28.10;70.60;;;;;;5051123;28;20070;-63
2022/08/04 10:49:08;;;;;;;2.85;1.63;;;28.00;71.70;;;;;;5059636;28;20020;-63
2022/08/04 10:51:50;;;;;;;3.78;1.35;;;27.90;73.20;;;;;;5044453;28;20063;-63
2022/08/04 10:54:30;;;;;;;3.72;1.33;;;27.80;74.90;;;;;;5065534;28;20036;-63
2022/08/04 10:57:02;;;;;;;3.72;1.75;;;27.60;75.60;;;;;;5049291;28;20024;-63
2022/08/04 10:59:33;;;;;;;4.00;1.95;;;27.50;76.90;;;;;;5056564;28;20059;-63
2022/08/04 11:02:18;;;;;;;3.72;1.60;;;27.30;77.70;;;;;;5055481;28;20022;-63
2022/08/04 11:04:47;;;;;;;4.00;1.40;;;27.20;78.30;;;;;;5056747;28;20049;-62
2022/08/04 11:07:15;;;;;;;4.35;1.35;;;27.00;78.70;;;;;;5056586;28;20085;-62
2022/08/04 11:09:42;;;;;;;3.03;1.40;;;26.90;79.10;;;;;;5013245;28;20021;-62
2022/08/04 11:12:24;;;;;;;2.72;1.20;;;26.80;79.50;;;;;;5058170;28;20037;-63
2022/08/04 11:14:57;;;;;;;4.05;1.60;;;26.70;79.80;;;;;;5045824;28;20068;-63
2022/08/04 11:17:32;;;;;;;3.50;1.55;;;26.70;80.50;;;;;;5058550;28;20029;-62
2022/08/04 11:20:09;;;;;;;2.50;1.30;;;26.70;81.30;;;;;;5064710;28;20021;-62
2022/08/04 11:22:43;;;;;;;3.25;1.40;;;26.80;81.90;;;;;;5057416;28;20523;-63
2022/08/04 11:25:21;;;;;;;4.63;1.48;;;26.70;82.70;;;;;;5046316;28;20077;-62
2022/08/04 11:28:10;;;;;;;2.75;1.48;;;26.80;83.20;;;;;;5055103;28;20393;-63
2022/08/04 11:30:57;;;;;;;3.88;1.50;;;26.80;83.20;;;;;;5063401;28;20085;-63
2022/08/04 11:33:44;;;;;;;3.13;1.15;;;26.80;83.20;;;;;;5059430;28;20043;-63
2022/08/04 11:36:43;;;;;;;2.42;1.27;;;26.70;83.50;;;;;;5039313;28;20017;-63
2022/08/04 11:39:16;;;;;;;;;;;26.70;83.40;;;;;;5064768;28;20104;-63
2022/08/04 11:41:53;;;;;;;3.08;1.42;;;26.70;83.70;;;;;;5046692;28;19934;-63
2022/08/04 11:44:24;;;;;;;2.63;1.65;;;26.70;83.80;;;;;;5042092;28;20569;-63
2022/08/04 11:46:55;;;;;;;4.60;1.38;;;26.70;83.80;;;;;;5040679;28;20025;-63
2022/08/04 11:49:35;;;;;;;3.40;1.08;;;26.60;83.90;;;;;;5042404;28;20466;-63
2022/08/04 11:52:04;;;;;;;4.80;1.23;;;26.70;84.40;;;;;;5048161;28;20021;-63
2022/08/04 11:54:32;;;;;;;4.20;1.45;;;26.60;84.40;;;;;;5052697;28;20047;-63
2022/08/04 11:56:57;;;;;;;4.28;1.60;;;26.60;84.80;;;;;;5032875;28;20029;-63
2022/08/04 11:59:25;;;;;;;3.45;1.55;;;26.60;84.80;;;;;;5050120;28;20498;-62
2022/08/04 12:02:28;;;;;;;2.92;1.73;;;26.70;84.90;;;;;;5052858;28;20017;-63
2022/08/04 12:05:01;;;;;;;3.78;1.48;;;26.60;85.20;;;;;;5030204;28;20048;-62
2022/08/04 12:07:45;;;;;;;2.53;1.52;;;26.60;85.70;;;;;;5053270;28;20056;-62
2022/08/04 12:10:14;;;;;;;3.08;1.73;;;26.80;85.60;;;;;;5035607;28;20170;-62
2022/08/04 12:13:05;;;;;;;2.53;1.60;;;26.90;85.60;;;;;;5059818;28;20467;-63
2022/08/04 12:16:02;;;;;;;4.47;1.75;;;27.20;85.00;;;;;;5046959;28;20030;-62
2022/08/04 12:18:39;;;;;;;3.15;1.58;;;27.50;84.70;;;;;;5033924;28;20021;-63
2022/08/04 12:21:13;;;;;;;2.75;1.45;;;27.80;84.10;;;;;;5052472;28;20045;-63
2022/08/04 12:23:40;;;;;;;2.67;1.80;;;28.00;83.70;;;;;;5044916;28;20017;-62
2022/08/04 12:26:09;;;;;;;5.03;1.98;;;28.20;82.90;;;;;;5042684;28;20029;-62
2022/08/04 12:28:38;;;;;;;3.20;1.95;;;28.40;82.20;;;;;;5045966;28;20439;-62
2022/08/04 12:31:18;;;;;;;3.40;1.90;;;28.50;81.60;;;;;;5053732;28;20025;-63
2022/08/04 12:33:55;;;;;;;3.83;1.85;;;28.70;80.60;;;;;;5063526;28;20029;-62
2022/08/04 12:36:34;;;;;;;4.72;1.60;;;28.80;80.00;;;;;;5051943;28;20032;-63
2022/08/04 12:39:17;;;;;;;4.57;1.98;;;28.90;79.60;;;;;;5040497;28;20040;-63
2022/08/04 12:41:54;;;;;;;3.28;1.75;;;29.10;79.40;;;;;;5041450;28;20068;-62
2022/08/04 12:44:20;;;;;;;3.00;1.63;;;29.10;78.90;;;;;;5044521;28;20017;-63
2022/08/04 12:46:47;;;;;;;2.72;1.73;;;29.30;78.70;;;;;;5061367;28;20461;-63
2022/08/04 12:49:14;;;;;;;3.63;1.30;;;29.30;78.30;;;;;;5033013;28;20030;-63
2022/08/04 12:51:43;;;;;;;2.83;1.25;;;29.30;78.20;;;;;;5039835;28;20017;-63
2022/08/04 12:54:10;;;;;;;4.30;0.90;;;29.30;77.70;;;;;;5041520;28;20028;-62
2022/08/04 12:56:37;;;;;;;3.13;1.15;;;29.20;77.30;;;;;;5043315;28;20028;-63
2022/08/04 12:59:06;;;;;;;1.92;0.95;;;29.20;77.10;;;;;;5045470;28;20029;-63
2022/08/04 13:01:33;;;;;;;1.48;0.90;;;29.10;76.60;;;;;;5040598;28;20434;-62
2022/08/04 13:04:15;;;;;;;1.77;1.00;;;29.10;76.30;;;;;;5050333;28;20410;-63
2022/08/04 13:06:42;;;;;;;1.65;0.77;;;29.10;76.00;;;;;;5047515;28;20380;-63
2022/08/04 13:09:13;;;;;;;1.77;0.70;;;29.10;76.00;;;;;;5042384;28;20020;-63
2022/08/04 13:11:41;;;;;;;2.42;1.20;;;29.40;75.70;;;;;;5043615;28;20017;-63
2022/08/04 13:14:10;;;;;;;3.00;0.80;;;29.80;74.90;;;;;;5047111;28;20025;-63
2022/08/04 13:16:36;;;;;;;3.90;1.33;;;30.10;73.90;;;;;;5046693;28;20103;-63
2022/08/04 13:19:07;;;;;;;4.05;1.10;;;30.30;73.30;;;;;;5040525;28;20445;-63
2022/08/04 13:21:33;;;;;;;4.82;1.45;;;30.40;72.50;;;;;;5056609;28;20055;-62
2022/08/04 13:24:06;;;;;;;3.40;1.30;;;30.40;71.90;;;;;;5065469;28;20029;-63
2022/08/04 13:26:33;;;;;;;3.75;1.20;;;30.50;71.00;;;;;;5048331;28;20072;-63
2022/08/04 13:29:04;;;;;;;3.63;1.33;;;30.60;70.60;;;;;;5052004;28;20021;-63
2022/08/04 13:31:31;;;;;;;2.80;1.42;;;30.80;70.10;;;;;;5054261;28;20541;-63
2022/08/04 13:34:06;;;;;;;2.60;1.00;;;30.90;69.30;;;;;;5051819;28;20032;-63
2022/08/04 13:36:33;;;;;;;2.05;0.93;;;31.20;69.10;;;;;;5052037;28;20063;-64
2022/08/04 13:39:06;;;;;;;2.22;1.10;;;31.30;68.40;;;;;;5049780;28;20025;-64